Newport, Nebraska
Current Conditions -  °F | °C
As of 6:15 PM on Saturday 20 Dec 2014 (Local Time) from KANW Reporting Station
Scattered Clouds Scattered Clouds  
Wind Chill: 29°   Ceiling: Unl
Heat Index: 29°   Visibility: 10mi
Dew Point: 26°   Wind: 3mph
Humidity: 88%   Direction: 210°SSW
Pressure: 29.9"   Gusts: NA
Location:  42.6°N, 99.33°W
Report Text: KANW 210015Z AUTO 21003KT 10SM SCT095 M02/M03 A2990 RMK AO2 T10161033
Loading
Personal Weather Stations






























Interactive Weather Map New forecast layout! Learn more

10-Day Weather Forecast

Advertisements
Track Severe Weather on mobile